sensor_id;sensor_type;location;lat;lon;timestamp;P1;durP1;ratioP1;P2;durP2;ratioP2
64339;SDS011;63709;53.258;-8.814;2022-11-23T00:00:25;12.25;;;2.15;;
64339;SDS011;63709;53.258;-8.814;2022-11-23T00:02:52;8.43;;;2.55;;
64339;SDS011;63709;53.258;-8.814;2022-11-23T00:05:20;14.45;;;1.70;;
64339;SDS011;63709;53.258;-8.814;2022-11-23T00:07:46;8.52;;;1.75;;
64339;SDS011;63709;53.258;-8.814;2022-11-23T00:10:11;8.27;;;1.90;;
64339;SDS011;63709;53.258;-8.814;2022-11-23T00:12:38;8.23;;;2.28;;
64339;SDS011;63709;53.258;-8.814;2022-11-23T00:15:04;14.55;;;2.20;;
64339;SDS011;63709;53.258;-8.814;2022-11-23T00:17:31;10.38;;;2.05;;
64339;SDS011;63709;53.258;-8.814;2022-11-23T00:19:58;13.98;;;2.20;;
64339;SDS011;63709;53.258;-8.814;2022-11-23T00:22:24;9.27;;;1.90;;
64339;SDS011;63709;53.258;-8.814;2022-11-23T00:24:50;26.52;;;3.10;;
64339;SDS011;63709;53.258;-8.814;2022-11-23T00:27:16;7.32;;;1.92;;
64339;SDS011;63709;53.258;-8.814;2022-11-23T00:29:43;13.80;;;1.83;;
64339;SDS011;63709;53.258;-8.814;2022-11-23T00:32:09;9.82;;;1.83;;
64339;SDS011;63709;53.258;-8.814;2022-11-23T00:34:35;13.40;;;2.22;;
64339;SDS011;63709;53.258;-8.814;2022-11-23T00:37:01;10.73;;;2.00;;
64339;SDS011;63709;53.258;-8.814;2022-11-23T00:39:27;8.77;;;1.75;;
64339;SDS011;63709;53.258;-8.814;2022-11-23T00:41:53;14.13;;;2.45;;
64339;SDS011;63709;53.258;-8.814;2022-11-23T00:44:19;12.65;;;2.10;;
64339;SDS011;63709;53.258;-8.814;2022-11-23T00:46:45;12.98;;;2.38;;
64339;SDS011;63709;53.258;-8.814;2022-11-23T00:49:11;10.45;;;2.20;;
64339;SDS011;63709;53.258;-8.814;2022-11-23T00:51:36;17.05;;;2.65;;
64339;SDS011;63709;53.258;-8.814;2022-11-23T00:54:03;16.05;;;3.17;;
64339;SDS011;63709;53.258;-8.814;2022-11-23T00:56:31;13.52;;;2.42;;
64339;SDS011;63709;53.258;-8.814;2022-11-23T00:58:58;4.72;;;1.95;;
64339;SDS011;63709;53.258;-8.814;2022-11-23T01:01:26;10.00;;;2.63;;
64339;SDS011;63709;53.258;-8.814;2022-11-23T01:03:55;8.95;;;1.95;;
64339;SDS011;63709;53.258;-8.814;2022-11-23T01:06:27;9.70;;;2.05;;
64339;SDS011;63709;53.258;-8.814;2022-11-23T01:08:58;10.45;;;2.20;;
64339;SDS011;63709;53.258;-8.814;2022-11-23T01:11:28;13.32;;;2.30;;
64339;SDS011;63709;53.258;-8.814;2022-11-23T01:13:56;12.18;;;2.35;;
64339;SDS011;63709;53.258;-8.814;2022-11-23T01:16:23;7.03;;;2.00;;
64339;SDS011;63709;53.258;-8.814;2022-11-23T01:18:52;9.38;;;1.80;;
64339;SDS011;63709;53.258;-8.814;2022-11-23T01:21:27;8.85;;;1.77;;
64339;SDS011;63709;53.258;-8.814;2022-11-23T01:23:53;11.23;;;1.58;;
64339;SDS011;63709;53.258;-8.814;2022-11-23T01:26:21;4.53;;;1.35;;
64339;SDS011;63709;53.258;-8.814;2022-11-23T01:28:47;5.13;;;1.33;;
64339;SDS011;63709;53.258;-8.814;2022-11-23T01:31:15;7.35;;;0.88;;
64339;SDS011;63709;53.258;-8.814;2022-11-23T01:34:08;9.52;;;1.08;;
64339;SDS011;63709;53.258;-8.814;2022-11-23T01:36:48;2.13;;;0.73;;
64339;SDS011;63709;53.258;-8.814;2022-11-23T01:39:15;5.45;;;0.98;;
64339;SDS011;63709;53.258;-8.814;2022-11-23T01:41:41;3.95;;;0.80;;
64339;SDS011;63709;53.258;-8.814;2022-11-23T01:47:08;0.95;;;0.50;;
64339;SDS011;63709;53.258;-8.814;2022-11-23T01:49:45;1.70;;;0.52;;
64339;SDS011;63709;53.258;-8.814;2022-11-23T01:52:21;3.17;;;0.68;;
64339;SDS011;63709;53.258;-8.814;2022-11-23T01:54:50;4.38;;;0.80;;
64339;SDS011;63709;53.258;-8.814;2022-11-23T01:57:27;2.50;;;0.70;;
64339;SDS011;63709;53.258;-8.814;2022-11-23T01:59:58;6.53;;;1.00;;
64339;SDS011;63709;53.258;-8.814;2022-11-23T02:02:26;8.05;;;1.25;;
64339;SDS011;63709;53.258;-8.814;2022-11-23T02:04:54;4.68;;;0.90;;
64339;SDS011;63709;53.258;-8.814;2022-11-23T02:07:21;5.93;;;0.95;;
64339;SDS011;63709;53.258;-8.814;2022-11-23T02:09:49;7.93;;;1.67;;
64339;SDS011;63709;53.258;-8.814;2022-11-23T02:12:18;9.88;;;1.27;;
64339;SDS011;63709;53.258;-8.814;2022-11-23T02:14:43;7.38;;;1.85;;
64339;SDS011;63709;53.258;-8.814;2022-11-23T02:17:10;8.73;;;1.40;;
64339;SDS011;63709;53.258;-8.814;2022-11-23T02:24:58;13.27;;;1.95;;
64339;SDS011;63709;53.258;-8.814;2022-11-23T02:27:26;22.00;;;2.20;;
64339;SDS011;63709;53.258;-8.814;2022-11-23T02:29:52;7.63;;;2.25;;
64339;SDS011;63709;53.258;-8.814;2022-11-23T02:32:20;12.45;;;2.20;;
64339;SDS011;63709;53.258;-8.814;2022-11-23T02:34:49;15.23;;;1.90;;
64339;SDS011;63709;53.258;-8.814;2022-11-23T02:39:43;24.52;;;2.05;;
64339;SDS011;63709;53.258;-8.814;2022-11-23T02:42:12;17.88;;;1.73;;
64339;SDS011;63709;53.258;-8.814;2022-11-23T02:47:07;15.70;;;2.20;;
64339;SDS011;63709;53.258;-8.814;2022-11-23T02:49:34;14.95;;;1.40;;
64339;SDS011;63709;53.258;-8.814;2022-11-23T02:52:01;18.60;;;2.63;;
64339;SDS011;63709;53.258;-8.814;2022-11-23T02:54:28;18.25;;;2.28;;
64339;SDS011;63709;53.258;-8.814;2022-11-23T02:56:54;17.05;;;2.28;;
64339;SDS011;63709;53.258;-8.814;2022-11-23T02:59:20;9.73;;;1.60;;
64339;SDS011;63709;53.258;-8.814;2022-11-23T03:01:46;8.63;;;1.75;;
64339;SDS011;63709;53.258;-8.814;2022-11-23T03:04:12;14.27;;;1.60;;
64339;SDS011;63709;53.258;-8.814;2022-11-23T03:06:39;14.27;;;1.40;;
64339;SDS011;63709;53.258;-8.814;2022-11-23T03:09:07;13.82;;;1.20;;
64339;SDS011;63709;53.258;-8.814;2022-11-23T03:11:33;10.90;;;1.30;;
64339;SDS011;63709;53.258;-8.814;2022-11-23T03:13:59;19.40;;;1.90;;
64339;SDS011;63709;53.258;-8.814;2022-11-23T03:16:25;13.93;;;1.42;;
64339;SDS011;63709;53.258;-8.814;2022-11-23T03:18:50;16.63;;;1.60;;
64339;SDS011;63709;53.258;-8.814;2022-11-23T03:23:43;13.20;;;2.17;;
64339;SDS011;63709;53.258;-8.814;2022-11-23T03:26:10;18.20;;;2.03;;
64339;SDS011;63709;53.258;-8.814;2022-11-23T03:28:36;19.35;;;3.47;;
64339;SDS011;63709;53.258;-8.814;2022-11-23T03:31:02;15.52;;;1.90;;
64339;SDS011;63709;53.258;-8.814;2022-11-23T03:33:27;12.57;;;1.67;;
64339;SDS011;63709;53.258;-8.814;2022-11-23T03:35:53;10.40;;;1.95;;
64339;SDS011;63709;53.258;-8.814;2022-11-23T03:38:21;18.25;;;2.45;;
64339;SDS011;63709;53.258;-8.814;2022-11-23T03:40:47;27.48;;;2.03;;
64339;SDS011;63709;53.258;-8.814;2022-11-23T03:43:13;17.05;;;2.60;;
64339;SDS011;63709;53.258;-8.814;2022-11-23T03:45:40;22.55;;;2.45;;
64339;SDS011;63709;53.258;-8.814;2022-11-23T03:48:06;16.15;;;2.53;;
64339;SDS011;63709;53.258;-8.814;2022-11-23T03:50:32;25.90;;;3.00;;
64339;SDS011;63709;53.258;-8.814;2022-11-23T03:52:58;27.23;;;3.53;;
64339;SDS011;63709;53.258;-8.814;2022-11-23T03:55:24;27.38;;;3.53;;
64339;SDS011;63709;53.258;-8.814;2022-11-23T03:57:51;29.10;;;2.85;;
64339;SDS011;63709;53.258;-8.814;2022-11-23T04:00:24;33.33;;;4.50;;
64339;SDS011;63709;53.258;-8.814;2022-11-23T04:02:51;32.30;;;3.38;;
64339;SDS011;63709;53.258;-8.814;2022-11-23T04:05:18;24.17;;;2.88;;
64339;SDS011;63709;53.258;-8.814;2022-11-23T04:07:47;22.58;;;3.72;;
64339;SDS011;63709;53.258;-8.814;2022-11-23T04:10:14;22.85;;;2.95;;
64339;SDS011;63709;53.258;-8.814;2022-11-23T04:12:41;28.42;;;3.00;;
64339;SDS011;63709;53.258;-8.814;2022-11-23T04:15:08;24.45;;;3.97;;
64339;SDS011;63709;53.258;-8.814;2022-11-23T04:17:34;23.88;;;3.25;;
64339;SDS011;63709;53.258;-8.814;2022-11-23T04:22:27;20.48;;;2.90;;
64339;SDS011;63709;53.258;-8.814;2022-11-23T04:24:55;18.75;;;2.95;;
64339;SDS011;63709;53.258;-8.814;2022-11-23T04:27:21;27.08;;;3.47;;
64339;SDS011;63709;53.258;-8.814;2022-11-23T04:29:47;23.48;;;3.22;;
64339;SDS011;63709;53.258;-8.814;2022-11-23T04:32:12;25.63;;;3.40;;
64339;SDS011;63709;53.258;-8.814;2022-11-23T04:34:38;25.80;;;2.78;;
64339;SDS011;63709;53.258;-8.814;2022-11-23T04:37:04;15.65;;;2.25;;
64339;SDS011;63709;53.258;-8.814;2022-11-23T04:39:30;15.27;;;2.88;;
64339;SDS011;63709;53.258;-8.814;2022-11-23T04:41:57;13.73;;;2.60;;
64339;SDS011;63709;53.258;-8.814;2022-11-23T04:44:23;23.23;;;2.38;;
64339;SDS011;63709;53.258;-8.814;2022-11-23T04:46:49;26.48;;;3.25;;
64339;SDS011;63709;53.258;-8.814;2022-11-23T04:49:15;25.52;;;3.20;;
64339;SDS011;63709;53.258;-8.814;2022-11-23T04:51:41;17.88;;;3.38;;
64339;SDS011;63709;53.258;-8.814;2022-11-23T04:54:07;23.67;;;3.17;;
64339;SDS011;63709;53.258;-8.814;2022-11-23T04:56:34;21.02;;;2.58;;
64339;SDS011;63709;53.258;-8.814;2022-11-23T04:59:00;33.47;;;5.00;;
64339;SDS011;63709;53.258;-8.814;2022-11-23T05:01:27;27.75;;;3.15;;
64339;SDS011;63709;53.258;-8.814;2022-11-23T05:03:53;15.48;;;3.10;;
64339;SDS011;63709;53.258;-8.814;2022-11-23T05:06:18;22.08;;;4.13;;
64339;SDS011;63709;53.258;-8.814;2022-11-23T05:08:44;19.45;;;3.30;;
64339;SDS011;63709;53.258;-8.814;2022-11-23T05:11:10;20.38;;;2.70;;
64339;SDS011;63709;53.258;-8.814;2022-11-23T05:13:36;13.40;;;2.28;;
64339;SDS011;63709;53.258;-8.814;2022-11-23T05:16:02;23.42;;;3.20;;
64339;SDS011;63709;53.258;-8.814;2022-11-23T05:18:29;17.10;;;3.00;;
64339;SDS011;63709;53.258;-8.814;2022-11-23T05:20:55;13.63;;;2.00;;
64339;SDS011;63709;53.258;-8.814;2022-11-23T05:23:20;19.48;;;2.83;;
64339;SDS011;63709;53.258;-8.814;2022-11-23T05:25:46;16.67;;;2.42;;
64339;SDS011;63709;53.258;-8.814;2022-11-23T05:28:16;22.45;;;3.05;;
64339;SDS011;63709;53.258;-8.814;2022-11-23T05:30:45;20.98;;;4.03;;
64339;SDS011;63709;53.258;-8.814;2022-11-23T05:33:10;16.75;;;2.38;;
64339;SDS011;63709;53.258;-8.814;2022-11-23T05:35:37;22.00;;;2.92;;
64339;SDS011;63709;53.258;-8.814;2022-11-23T05:38:04;22.77;;;2.60;;
64339;SDS011;63709;53.258;-8.814;2022-11-23T05:40:30;18.15;;;3.00;;
64339;SDS011;63709;53.258;-8.814;2022-11-23T05:42:56;26.30;;;3.45;;
64339;SDS011;63709;53.258;-8.814;2022-11-23T05:45:23;21.08;;;2.40;;
64339;SDS011;63709;53.258;-8.814;2022-11-23T05:47:50;24.20;;;3.03;;
64339;SDS011;63709;53.258;-8.814;2022-11-23T05:50:17;23.98;;;2.72;;
64339;SDS011;63709;53.258;-8.814;2022-11-23T05:55:09;21.02;;;3.00;;
64339;SDS011;63709;53.258;-8.814;2022-11-23T05:57:36;35.90;;;3.60;;
64339;SDS011;63709;53.258;-8.814;2022-11-23T06:00:03;24.48;;;3.45;;
64339;SDS011;63709;53.258;-8.814;2022-11-23T06:02:30;19.90;;;3.10;;
64339;SDS011;63709;53.258;-8.814;2022-11-23T06:04:57;24.40;;;3.30;;
64339;SDS011;63709;53.258;-8.814;2022-11-23T06:07:23;22.50;;;4.28;;
64339;SDS011;63709;53.258;-8.814;2022-11-23T06:09:48;24.85;;;2.92;;
64339;SDS011;63709;53.258;-8.814;2022-11-23T06:12:14;20.20;;;3.10;;
64339;SDS011;63709;53.258;-8.814;2022-11-23T06:14:40;22.20;;;2.80;;
64339;SDS011;63709;53.258;-8.814;2022-11-23T06:17:06;27.40;;;3.35;;
64339;SDS011;63709;53.258;-8.814;2022-11-23T06:19:32;24.60;;;3.60;;
64339;SDS011;63709;53.258;-8.814;2022-11-23T06:21:58;25.38;;;3.58;;
64339;SDS011;63709;53.258;-8.814;2022-11-23T06:24:24;32.25;;;3.55;;
64339;SDS011;63709;53.258;-8.814;2022-11-23T06:26:51;26.00;;;3.20;;
64339;SDS011;63709;53.258;-8.814;2022-11-23T06:29:18;27.10;;;2.95;;
64339;SDS011;63709;53.258;-8.814;2022-11-23T06:31:44;18.55;;;2.58;;
64339;SDS011;63709;53.258;-8.814;2022-11-23T06:34:11;22.60;;;2.90;;
64339;SDS011;63709;53.258;-8.814;2022-11-23T06:36:37;23.67;;;2.97;;
64339;SDS011;63709;53.258;-8.814;2022-11-23T06:39:03;22.48;;;2.80;;
64339;SDS011;63709;53.258;-8.814;2022-11-23T06:44:01;24.23;;;3.33;;
64339;SDS011;63709;53.258;-8.814;2022-11-23T06:48:54;14.27;;;2.55;;
64339;SDS011;63709;53.258;-8.814;2022-11-23T06:51:20;17.85;;;3.63;;
64339;SDS011;63709;53.258;-8.814;2022-11-23T06:53:46;19.30;;;2.85;;
64339;SDS011;63709;53.258;-8.814;2022-11-23T06:56:12;19.63;;;3.30;;
64339;SDS011;63709;53.258;-8.814;2022-11-23T06:58:38;29.63;;;3.13;;
64339;SDS011;63709;53.258;-8.814;2022-11-23T07:01:07;28.88;;;3.90;;
64339;SDS011;63709;53.258;-8.814;2022-11-23T07:03:36;20.83;;;3.00;;
64339;SDS011;63709;53.258;-8.814;2022-11-23T07:06:05;30.00;;;3.92;;
64339;SDS011;63709;53.258;-8.814;2022-11-23T07:08:33;25.30;;;2.60;;
64339;SDS011;63709;53.258;-8.814;2022-11-23T07:11:02;19.33;;;2.55;;
64339;SDS011;63709;53.258;-8.814;2022-11-23T07:13:31;18.33;;;2.50;;
64339;SDS011;63709;53.258;-8.814;2022-11-23T07:15:57;23.25;;;3.28;;
64339;SDS011;63709;53.258;-8.814;2022-11-23T07:18:24;20.70;;;3.17;;
64339;SDS011;63709;53.258;-8.814;2022-11-23T07:20:50;16.42;;;2.15;;
64339;SDS011;63709;53.258;-8.814;2022-11-23T07:23:16;10.70;;;2.60;;
64339;SDS011;63709;53.258;-8.814;2022-11-23T07:25:43;11.85;;;2.17;;
64339;SDS011;63709;53.258;-8.814;2022-11-23T07:28:09;14.88;;;3.00;;
64339;SDS011;63709;53.258;-8.814;2022-11-23T07:30:36;16.85;;;2.40;;
64339;SDS011;63709;53.258;-8.814;2022-11-23T07:33:07;11.73;;;2.28;;
64339;SDS011;63709;53.258;-8.814;2022-11-23T07:35:34;7.53;;;1.30;;
64339;SDS011;63709;53.258;-8.814;2022-11-23T07:38:03;7.75;;;1.15;;
64339;SDS011;63709;53.258;-8.814;2022-11-23T07:40:32;9.45;;;1.10;;
64339;SDS011;63709;53.258;-8.814;2022-11-23T07:43:00;8.27;;;1.17;;
64339;SDS011;63709;53.258;-8.814;2022-11-23T07:45:27;11.48;;;1.30;;
64339;SDS011;63709;53.258;-8.814;2022-11-23T07:47:57;5.10;;;1.42;;
64339;SDS011;63709;53.258;-8.814;2022-11-23T07:50:26;8.35;;;1.42;;
64339;SDS011;63709;53.258;-8.814;2022-11-23T07:52:53;7.20;;;1.42;;
64339;SDS011;63709;53.258;-8.814;2022-11-23T07:55:18;9.00;;;1.42;;
64339;SDS011;63709;53.258;-8.814;2022-11-23T07:57:44;4.60;;;1.00;;
64339;SDS011;63709;53.258;-8.814;2022-11-23T08:00:10;9.52;;;1.60;;
64339;SDS011;63709;53.258;-8.814;2022-11-23T08:02:37;9.75;;;1.23;;
64339;SDS011;63709;53.258;-8.814;2022-11-23T08:05:04;7.85;;;1.10;;
64339;SDS011;63709;53.258;-8.814;2022-11-23T08:07:31;8.43;;;1.20;;
64339;SDS011;63709;53.258;-8.814;2022-11-23T08:09:56;8.00;;;1.23;;
64339;SDS011;63709;53.258;-8.814;2022-11-23T08:12:22;7.00;;;1.10;;
64339;SDS011;63709;53.258;-8.814;2022-11-23T08:14:49;6.20;;;1.45;;
64339;SDS011;63709;53.258;-8.814;2022-11-23T08:17:14;9.40;;;1.20;;
64339;SDS011;63709;53.258;-8.814;2022-11-23T08:19:40;7.72;;;1.40;;
64339;SDS011;63709;53.258;-8.814;2022-11-23T08:22:06;5.60;;;1.33;;
64339;SDS011;63709;53.258;-8.814;2022-11-23T08:24:32;7.40;;;1.50;;
64339;SDS011;63709;53.258;-8.814;2022-11-23T08:26:58;9.07;;;1.50;;
64339;SDS011;63709;53.258;-8.814;2022-11-23T08:29:24;12.07;;;2.00;;
64339;SDS011;63709;53.258;-8.814;2022-11-23T08:31:50;11.07;;;2.22;;
64339;SDS011;63709;53.258;-8.814;2022-11-23T08:36:43;10.60;;;1.98;;
64339;SDS011;63709;53.258;-8.814;2022-11-23T08:39:09;11.45;;;1.33;;
64339;SDS011;63709;53.258;-8.814;2022-11-23T08:41:36;9.13;;;1.70;;
64339;SDS011;63709;53.258;-8.814;2022-11-23T08:44:03;12.27;;;1.60;;
64339;SDS011;63709;53.258;-8.814;2022-11-23T08:46:29;11.07;;;1.88;;
64339;SDS011;63709;53.258;-8.814;2022-11-23T08:48:55;26.77;;;2.40;;
64339;SDS011;63709;53.258;-8.814;2022-11-23T08:51:21;14.02;;;1.83;;
64339;SDS011;63709;53.258;-8.814;2022-11-23T08:56:16;6.72;;;1.42;;
64339;SDS011;63709;53.258;-8.814;2022-11-23T08:58:42;10.25;;;1.45;;
64339;SDS011;63709;53.258;-8.814;2022-11-23T09:01:09;12.68;;;1.90;;
64339;SDS011;63709;53.258;-8.814;2022-11-23T09:03:36;7.88;;;1.67;;
64339;SDS011;63709;53.258;-8.814;2022-11-23T09:06:01;11.02;;;1.65;;
64339;SDS011;63709;53.258;-8.814;2022-11-23T09:08:27;13.30;;;1.95;;
64339;SDS011;63709;53.258;-8.814;2022-11-23T09:13:24;6.05;;;1.73;;
64339;SDS011;63709;53.258;-8.814;2022-11-23T09:15:50;9.15;;;1.30;;
64339;SDS011;63709;53.258;-8.814;2022-11-23T09:18:16;12.10;;;1.80;;
64339;SDS011;63709;53.258;-8.814;2022-11-23T09:20:42;10.27;;;1.83;;
64339;SDS011;63709;53.258;-8.814;2022-11-23T09:23:08;11.63;;;1.55;;
64339;SDS011;63709;53.258;-8.814;2022-11-23T09:25:34;12.10;;;1.95;;
64339;SDS011;63709;53.258;-8.814;2022-11-23T09:28:00;7.55;;;1.55;;
64339;SDS011;63709;53.258;-8.814;2022-11-23T09:30:28;11.23;;;2.00;;
64339;SDS011;63709;53.258;-8.814;2022-11-23T09:32:54;12.52;;;2.08;;
64339;SDS011;63709;53.258;-8.814;2022-11-23T09:35:22;12.85;;;1.75;;
64339;SDS011;63709;53.258;-8.814;2022-11-23T09:37:53;13.35;;;1.95;;
64339;SDS011;63709;53.258;-8.814;2022-11-23T09:40:23;14.60;;;2.33;;
64339;SDS011;63709;53.258;-8.814;2022-11-23T09:45:45;12.25;;;1.95;;
64339;SDS011;63709;53.258;-8.814;2022-11-23T09:51:15;7.43;;;1.70;;
64339;SDS011;63709;53.258;-8.814;2022-11-23T09:54:02;7.53;;;1.75;;
64339;SDS011;63709;53.258;-8.814;2022-11-23T09:56:35;14.00;;;1.90;;
64339;SDS011;63709;53.258;-8.814;2022-11-23T09:59:22;14.27;;;2.22;;
64339;SDS011;63709;53.258;-8.814;2022-11-23T10:01:59;9.85;;;1.67;;
64339;SDS011;63709;53.258;-8.814;2022-11-23T10:04:25;12.77;;;1.60;;
64339;SDS011;63709;53.258;-8.814;2022-11-23T10:06:58;12.40;;;1.73;;
64339;SDS011;63709;53.258;-8.814;2022-11-23T10:09:53;12.63;;;1.33;;
64339;SDS011;63709;53.258;-8.814;2022-11-23T10:15:14;11.75;;;2.00;;
64339;SDS011;63709;53.258;-8.814;2022-11-23T10:17:58;12.05;;;1.80;;
64339;SDS011;63709;53.258;-8.814;2022-11-23T10:23:02;11.02;;;2.05;;
64339;SDS011;63709;53.258;-8.814;2022-11-23T10:25:39;11.27;;;1.75;;
64339;SDS011;63709;53.258;-8.814;2022-11-23T10:28:13;7.55;;;1.33;;
64339;SDS011;63709;53.258;-8.814;2022-11-23T10:30:40;12.80;;;2.03;;
64339;SDS011;63709;53.258;-8.814;2022-11-23T10:35:44;9.60;;;2.03;;
64339;SDS011;63709;53.258;-8.814;2022-11-23T10:38:10;15.18;;;1.67;;
64339;SDS011;63709;53.258;-8.814;2022-11-23T10:40:54;10.63;;;1.38;;
64339;SDS011;63709;53.258;-8.814;2022-11-23T10:43:37;9.50;;;2.22;;
64339;SDS011;63709;53.258;-8.814;2022-11-23T10:49:07;9.50;;;1.38;;
64339;SDS011;63709;53.258;-8.814;2022-11-23T10:51:50;10.95;;;1.42;;
64339;SDS011;63709;53.258;-8.814;2022-11-23T10:56:59;9.45;;;1.77;;
64339;SDS011;63709;53.258;-8.814;2022-11-23T10:59:28;8.27;;;1.60;;
64339;SDS011;63709;53.258;-8.814;2022-11-23T11:02:01;10.32;;;1.92;;
64339;SDS011;63709;53.258;-8.814;2022-11-23T11:04:42;11.77;;;1.67;;
64339;SDS011;63709;53.258;-8.814;2022-11-23T11:07:09;15.95;;;1.75;;
64339;SDS011;63709;53.258;-8.814;2022-11-23T11:09:47;11.02;;;1.77;;
64339;SDS011;63709;53.258;-8.814;2022-11-23T11:12:23;13.07;;;2.15;;
64339;SDS011;63709;53.258;-8.814;2022-11-23T11:14:59;10.80;;;1.90;;
64339;SDS011;63709;53.258;-8.814;2022-11-23T11:17:39;16.35;;;2.13;;
64339;SDS011;63709;53.258;-8.814;2022-11-23T11:23:00;9.23;;;1.50;;
64339;SDS011;63709;53.258;-8.814;2022-11-23T11:25:37;6.15;;;1.35;;
64339;SDS011;63709;53.258;-8.814;2022-11-23T11:28:05;9.35;;;1.83;;
64339;SDS011;63709;53.258;-8.814;2022-11-23T11:36:22;11.15;;;1.80;;
64339;SDS011;63709;53.258;-8.814;2022-11-23T11:38:54;7.68;;;2.15;;
64339;SDS011;63709;53.258;-8.814;2022-11-23T11:41:23;10.85;;;1.92;;
64339;SDS011;63709;53.258;-8.814;2022-11-23T11:43:57;8.90;;;1.92;;
64339;SDS011;63709;53.258;-8.814;2022-11-23T11:46:33;8.35;;;1.90;;
64339;SDS011;63709;53.258;-8.814;2022-11-23T11:49:45;6.10;;;1.35;;
64339;SDS011;63709;53.258;-8.814;2022-11-23T11:52:09;7.15;;;1.75;;
64339;SDS011;63709;53.258;-8.814;2022-11-23T11:54:46;8.68;;;1.70;;
64339;SDS011;63709;53.258;-8.814;2022-11-23T12:00:38;8.07;;;1.90;;
64339;SDS011;63709;53.258;-8.814;2022-11-23T12:05:48;15.10;;;2.00;;
64339;SDS011;63709;53.258;-8.814;2022-11-23T12:08:24;12.38;;;2.40;;
64339;SDS011;63709;53.258;-8.814;2022-11-23T12:11:04;16.10;;;2.50;;
64339;SDS011;63709;53.258;-8.814;2022-11-23T12:13:35;18.00;;;2.60;;
64339;SDS011;63709;53.258;-8.814;2022-11-23T12:29:44;10.40;;;2.05;;
64339;SDS011;63709;53.258;-8.814;2022-11-23T12:35:18;9.63;;;1.73;;
64339;SDS011;63709;53.258;-8.814;2022-11-23T12:37:56;22.50;;;3.50;;
64339;SDS011;63709;53.258;-8.814;2022-11-23T12:48:37;19.83;;;2.80;;
64339;SDS011;63709;53.258;-8.814;2022-11-23T12:51:50;17.20;;;2.85;;
64339;SDS011;63709;53.258;-8.814;2022-11-23T13:15:54;19.08;;;2.60;;
64339;SDS011;63709;53.258;-8.814;2022-11-23T13:23:52;21.65;;;3.20;;
64339;SDS011;63709;53.258;-8.814;2022-11-23T13:28:45;21.85;;;3.10;;
64339;SDS011;63709;53.258;-8.814;2022-11-23T13:31:17;16.95;;;2.60;;
64339;SDS011;63709;53.258;-8.814;2022-11-23T13:33:45;19.08;;;2.60;;
64339;SDS011;63709;53.258;-8.814;2022-11-23T13:38:58;17.23;;;2.38;;
64339;SDS011;63709;53.258;-8.814;2022-11-23T13:47:05;16.17;;;2.90;;
64339;SDS011;63709;53.258;-8.814;2022-11-23T13:52:05;23.85;;;3.92;;
64339;SDS011;63709;53.258;-8.814;2022-11-23T13:57:45;28.40;;;3.95;;
64339;SDS011;63709;53.258;-8.814;2022-11-23T14:00:44;26.85;;;4.10;;
64339;SDS011;63709;53.258;-8.814;2022-11-23T14:06:24;28.63;;;4.60;;
64339;SDS011;63709;53.258;-8.814;2022-11-23T14:08:59;12.25;;;2.50;;
64339;SDS011;63709;53.258;-8.814;2022-11-23T14:11:29;18.98;;;2.85;;
64339;SDS011;63709;53.258;-8.814;2022-11-23T14:14:05;12.00;;;2.50;;
64339;SDS011;63709;53.258;-8.814;2022-11-23T14:22:21;11.90;;;2.08;;
64339;SDS011;63709;53.258;-8.814;2022-11-23T14:30:43;13.20;;;3.25;;
64339;SDS011;63709;53.258;-8.814;2022-11-23T14:41:48;23.88;;;4.20;;
64339;SDS011;63709;53.258;-8.814;2022-11-23T14:44:18;23.05;;;3.60;;
64339;SDS011;63709;53.258;-8.814;2022-11-23T14:46:59;28.40;;;4.50;;
64339;SDS011;63709;53.258;-8.814;2022-11-23T14:49:26;23.50;;;4.13;;
64339;SDS011;63709;53.258;-8.814;2022-11-23T14:54:18;25.98;;;4.72;;
64339;SDS011;63709;53.258;-8.814;2022-11-23T14:56:45;22.15;;;3.63;;
64339;SDS011;63709;53.258;-8.814;2022-11-23T15:01:47;18.08;;;3.10;;
64339;SDS011;63709;53.258;-8.814;2022-11-23T15:04:23;31.98;;;4.35;;
64339;SDS011;63709;53.258;-8.814;2022-11-23T15:07:01;22.83;;;4.88;;
64339;SDS011;63709;53.258;-8.814;2022-11-23T15:12:05;23.77;;;4.10;;
64339;SDS011;63709;53.258;-8.814;2022-11-23T15:14:52;28.25;;;4.18;;
64339;SDS011;63709;53.258;-8.814;2022-11-23T15:17:21;15.80;;;3.33;;
64339;SDS011;63709;53.258;-8.814;2022-11-23T15:19:53;16.05;;;2.22;;
64339;SDS011;63709;53.258;-8.814;2022-11-23T15:22:21;15.80;;;2.45;;
64339;SDS011;63709;53.258;-8.814;2022-11-23T15:24:49;24.58;;;3.03;;
64339;SDS011;63709;53.258;-8.814;2022-11-23T15:27:20;28.85;;;4.05;;
64339;SDS011;63709;53.258;-8.814;2022-11-23T15:29:55;32.97;;;3.53;;
64339;SDS011;63709;53.258;-8.814;2022-11-23T15:32:31;29.80;;;4.53;;
64339;SDS011;63709;53.258;-8.814;2022-11-23T15:34:59;26.35;;;4.35;;
64339;SDS011;63709;53.258;-8.814;2022-11-23T15:37:29;35.83;;;5.03;;
64339;SDS011;63709;53.258;-8.814;2022-11-23T15:42:30;21.02;;;2.70;;
64339;SDS011;63709;53.258;-8.814;2022-11-23T15:44:56;15.55;;;2.42;;
64339;SDS011;63709;53.258;-8.814;2022-11-23T15:47:26;10.55;;;2.15;;
64339;SDS011;63709;53.258;-8.814;2022-11-23T15:50:08;7.32;;;1.48;;
64339;SDS011;63709;53.258;-8.814;2022-11-23T15:52:38;7.07;;;1.17;;
64339;SDS011;63709;53.258;-8.814;2022-11-23T15:55:07;10.65;;;1.30;;
64339;SDS011;63709;53.258;-8.814;2022-11-23T15:57:41;9.18;;;1.52;;
64339;SDS011;63709;53.258;-8.814;2022-11-23T16:00:07;13.43;;;2.72;;
64339;SDS011;63709;53.258;-8.814;2022-11-23T16:02:45;8.80;;;1.90;;
64339;SDS011;63709;53.258;-8.814;2022-11-23T16:05:18;14.43;;;2.30;;
64339;SDS011;63709;53.258;-8.814;2022-11-23T16:07:53;16.42;;;2.30;;
64339;SDS011;63709;53.258;-8.814;2022-11-23T16:13:03;19.00;;;3.15;;
64339;SDS011;63709;53.258;-8.814;2022-11-23T16:18:45;18.75;;;2.75;;
64339;SDS011;63709;53.258;-8.814;2022-11-23T16:20:57;19.17;;;2.92;;
64339;SDS011;63709;53.258;-8.814;2022-11-23T16:23:48;25.73;;;4.20;;
64339;SDS011;63709;53.258;-8.814;2022-11-23T16:26:15;28.65;;;3.85;;
64339;SDS011;63709;53.258;-8.814;2022-11-23T16:28:55;32.47;;;5.35;;
64339;SDS011;63709;53.258;-8.814;2022-11-23T16:31:27;27.98;;;3.95;;
64339;SDS011;63709;53.258;-8.814;2022-11-23T16:34:02;44.55;;;6.05;;
64339;SDS011;63709;53.258;-8.814;2022-11-23T16:36:38;29.65;;;6.00;;
64339;SDS011;63709;53.258;-8.814;2022-11-23T16:39:04;38.08;;;5.78;;
64339;SDS011;63709;53.258;-8.814;2022-11-23T16:41:30;33.65;;;4.50;;
64339;SDS011;63709;53.258;-8.814;2022-11-23T16:43:56;41.50;;;5.30;;
64339;SDS011;63709;53.258;-8.814;2022-11-23T16:46:22;37.40;;;6.03;;
64339;SDS011;63709;53.258;-8.814;2022-11-23T16:48:47;44.47;;;6.22;;
64339;SDS011;63709;53.258;-8.814;2022-11-23T16:51:13;25.27;;;5.28;;
64339;SDS011;63709;53.258;-8.814;2022-11-23T16:53:42;31.25;;;5.43;;
64339;SDS011;63709;53.258;-8.814;2022-11-23T16:56:15;37.05;;;5.85;;
64339;SDS011;63709;53.258;-8.814;2022-11-23T16:58:47;35.17;;;5.07;;
64339;SDS011;63709;53.258;-8.814;2022-11-23T17:01:19;31.40;;;4.70;;
64339;SDS011;63709;53.258;-8.814;2022-11-23T17:03:48;24.08;;;3.63;;
64339;SDS011;63709;53.258;-8.814;2022-11-23T17:06:14;23.67;;;4.18;;
64339;SDS011;63709;53.258;-8.814;2022-11-23T17:08:47;26.42;;;3.40;;
64339;SDS011;63709;53.258;-8.814;2022-11-23T17:11:19;19.73;;;4.03;;
64339;SDS011;63709;53.258;-8.814;2022-11-23T17:13:48;29.40;;;4.82;;
64339;SDS011;63709;53.258;-8.814;2022-11-23T17:16:16;20.05;;;4.38;;
64339;SDS011;63709;53.258;-8.814;2022-11-23T17:18:43;23.63;;;3.67;;
64339;SDS011;63709;53.258;-8.814;2022-11-23T17:21:09;24.98;;;3.67;;
64339;SDS011;63709;53.258;-8.814;2022-11-23T17:23:37;18.65;;;3.40;;
64339;SDS011;63709;53.258;-8.814;2022-11-23T17:29:01;19.67;;;2.63;;
64339;SDS011;63709;53.258;-8.814;2022-11-23T17:31:29;20.92;;;3.05;;
64339;SDS011;63709;53.258;-8.814;2022-11-23T17:33:55;18.52;;;2.88;;